.
WxDataArchive / Data Records for 2014-01-18
2014-01-17 January 2014 2014-01-19

Data Records for Saturday, 18 January 2014

Time	Temp	Chill	HIndex	Humid	Dewpt	 Wind 	HiWind	WindDir	Rain 	Barom 
-----	----	-----	------	-----	-----	------	------	-------	-----	----- 
00:00	11.2	11.2	11.2	78	5.7	0	2	248	0.00	30.006 
00:05	11.2	11.2	11.2	79	6.0	1	4	248	0.00	30.006 
00:10	11.2	11.2	11.2	79	6.0	0	2	248	0.00	30.006 
00:15	11.2	11.2	11.2	79	6.0	0	4	248	0.00	30.005 
00:20	11.4	11.4	11.4	79	6.2	0	2	248	0.00	30.005 
00:25	11.4	11.4	11.4	79	6.2	0	3	248	0.00	30.005 
00:30	11.4	11.4	11.4	79	6.2	1	3	248	0.00	29.999 
00:35	11.6	11.6	11.6	79	6.4	0	3	248	0.00	29.999 
00:40	11.6	11.6	11.6	79	6.4	0	2	248	0.00	29.999 
00:45	11.6	11.6	11.6	79	6.4	1	3	248	0.00	29.992 
00:50	11.6	11.6	11.6	79	6.4	0	4	225	0.00	29.992 
00:55	11.6	11.6	11.6	79	6.4	0	2	225	0.00	29.992 
01:00	11.6	11.6	11.6	79	6.4	0	2	225	0.00	29.988 
01:05	11.6	11.6	11.6	79	6.4	0	3	225	0.00	29.988 
01:10	11.6	11.6	11.6	80	6.6	0	3	225	0.00	29.988 
01:15	11.6	11.6	11.6	80	6.6	1	3	225	0.00	29.989 
01:20	11.7	11.7	11.7	80	6.7	0	3	225	0.00	29.989 
01:25	11.7	11.7	11.7	80	6.7	0	3	225	0.00	29.989 
01:30	11.7	11.7	11.7	80	6.7	0	3	225	0.00	29.981 
01:35	11.9	11.9	11.9	80	6.9	0	3	225	0.00	29.981 
01:40	11.9	11.9	11.9	80	6.9	0	3	225	0.00	29.981 
01:45	12.1	12.1	12.1	80	7.1	0	4	225	0.00	29.979 
01:50	12.1	12.1	12.1	80	7.1	0	2	248	0.00	29.979 
01:55	12.3	12.3	12.3	80	7.3	0	3	248	0.00	29.979 
02:00	12.3	12.3	12.3	80	7.3	0	2	248	0.00	29.975 
02:05	12.4	12.4	12.4	80	7.4	1	3	248	0.00	29.975 
02:10	12.4	12.4	12.4	80	7.4	1	4	248	0.00	29.975 
02:15	12.6	12.6	12.6	80	7.6	1	3	248	0.00	29.977 
02:20	12.6	12.6	12.6	80	7.6	1	5	248	0.00	29.977 
02:25	12.8	12.8	12.8	79	7.5	0	3	248	0.00	29.977 
02:30	12.8	12.8	12.8	79	7.5	1	3	248	0.00	29.987 
02:35	12.9	12.9	12.9	79	7.6	1	4	248	0.00	29.987 
02:40	12.9	12.9	12.9	79	7.6	1	4	248	0.00	29.987 
02:45	12.9	12.9	12.9	79	7.6	0	2	248	0.00	29.991 
02:50	13.1	13.1	13.1	79	7.8	1	3	248	0.00	29.991 
02:55	13.1	13.1	13.1	79	7.8	1	4	248	0.00	29.991 
03:00	13.1	13.1	13.1	78	7.6	1	4	248	0.00	29.989 
03:05	13.1	13.1	13.1	78	7.6	1	4	248	0.00	29.989 
03:10	13.1	13.1	13.1	78	7.6	1	3	248	0.00	29.989 
03:15	13.1	13.1	13.1	78	7.6	1	3	248	0.00	29.992 
03:20	13.1	13.1	13.1	78	7.6	1	3	248	0.00	29.992 
03:25	13.1	13.1	13.1	78	7.6	1	3	248	0.00	29.992 
03:30	13.1	13.1	13.1	78	7.6	1	4	248	0.00	29.992 
03:35	13.1	13.1	13.1	78	7.6	0	3	248	0.00	29.992 
03:40	13.1	13.1	13.1	78	7.6	0	3	248	0.00	29.992 
03:45	12.9	12.9	12.9	78	7.4	1	3	248	0.00	29.994 
03:50	12.9	12.9	12.9	78	7.4	1	3	248	0.00	29.994 
03:55	12.8	12.8	12.8	78	7.3	0	3	248	0.00	29.994 
04:00	12.6	12.6	12.6	78	7.1	1	3	248	0.00	29.991 
04:05	12.4	12.4	12.4	78	6.9	0	2	248	0.00	29.991 
04:10	12.4	12.4	12.4	78	6.9	1	3	248	0.00	29.991 
04:15	12.3	12.3	12.3	78	6.8	1	3	248	0.00	29.997 
04:20	12.3	12.3	12.3	78	6.8	0	2	248	0.00	29.997 
04:25	12.1	12.1	12.1	78	6.6	1	3	248	0.00	29.997 
04:30	11.9	11.9	11.9	78	6.4	0	2	248	0.00	29.996 
04:35	11.9	11.9	11.9	78	6.4	0	3	248	0.00	29.996 
04:40	11.7	11.7	11.7	79	6.5	1	2	248	0.00	29.996 
04:45	11.7	11.7	11.7	79	6.5	0	2	248	0.00	29.997 
04:50	11.6	11.6	11.6	79	6.4	0	2	248	0.00	29.997 
04:55	11.6	11.6	11.6	79	6.4	0	2	248	0.00	29.997 
05:00	11.4	11.4	11.4	79	6.2	0	2	248	0.00	29.996 
05:05	11.4	11.4	11.4	79	6.2	0	2	248	0.00	29.996 
05:10	11.4	11.4	11.4	79	6.2	0	2	248	0.00	29.996 
05:15	11.2	11.2	11.2	79	6.0	0	3	248	0.00	29.997 
05:20	11.2	11.2	11.2	79	6.0	0	1	248	0.00	29.997 
05:25	11.1	11.1	11.1	79	5.9	0	1	248	0.00	29.997 
05:30	10.9	10.9	10.9	79	5.7	0	1	248	0.00	29.991 
05:35	10.7	10.7	10.7	80	5.8	0	1	248	0.00	29.991 
05:40	10.7	10.7	10.7	80	5.8	0	1	248	0.00	29.991 
05:45	10.5	10.5	10.5	80	5.6	0	1	248	0.00	29.990 
05:50	10.5	10.5	10.5	80	5.6	0	0	---	0.00	29.990 
05:55	10.4	10.4	10.4	80	5.5	0	1	248	0.00	29.990 
06:00	10.2	10.2	10.2	80	5.3	0	0	---	0.00	29.986 
06:05	10.0	10.0	10.0	81	5.4	0	2	248	0.00	29.986 
06:10	10.0	10.0	10.0	81	5.4	0	0	---	0.00	29.986 
06:15	10.0	10.0	10.0	81	5.4	0	1	248	0.00	29.986 
06:20	10.0	10.0	10.0	81	5.4	0	1	248	0.00	29.986 
06:25	9.9	9.9	9.9	81	5.3	0	1	248	0.00	29.986 
06:30	9.9	9.9	9.9	81	5.3	0	1	248	0.00	29.986 
06:35	10.0	10.0	10.0	82	5.6	0	2	248	0.00	29.986 
06:40	10.0	10.0	10.0	82	5.6	0	1	248	0.00	29.986 
06:45	10.0	10.0	10.0	82	5.6	0	2	248	0.00	29.986 
06:50	10.0	10.0	10.0	82	5.6	0	2	248	0.00	29.986 
06:55	10.2	10.2	10.2	82	5.8	0	2	248	0.00	29.986 
07:00	10.4	10.4	10.4	82	6.0	0	2	248	0.00	29.997 
07:05	10.4	10.4	10.4	82	6.0	0	2	248	0.00	29.997 
07:10	10.4	10.4	10.4	82	6.0	0	2	248	0.00	29.997 
07:15	10.5	10.5	10.5	82	6.1	1	2	248	0.00	29.999 
07:20	10.5	10.5	10.5	82	6.1	0	2	248	0.00	29.999 
07:25	10.7	10.7	10.7	82	6.3	0	2	248	0.00	29.999 
07:30	10.9	10.9	10.9	83	6.8	1	4	248	0.00	29.996 
07:35	11.1	11.1	11.1	82	6.7	0	2	248	0.00	29.996 
07:40	11.2	11.2	11.2	82	6.8	0	1	248	0.00	29.996 
07:45	11.4	11.4	11.4	82	7.0	0	2	248	0.00	29.986 
07:50	11.4	11.4	11.4	82	7.0	0	0	---	0.00	29.986 
07:55	11.4	11.4	11.4	82	7.0	0	1	248	0.00	29.986 
08:00	11.2	11.2	11.2	82	6.8	0	1	248	0.00	29.980 
08:05	11.1	11.1	11.1	81	6.4	0	0	---	0.00	29.980 
08:10	10.9	10.9	10.9	81	6.2	0	0	---	0.00	29.980 
08:15	10.7	10.7	10.7	81	6.0	0	1	248	0.00	29.988 
08:20	10.7	10.7	10.7	81	6.0	0	1	248	0.00	29.988 
08:25	10.7	10.7	10.7	81	6.0	0	0	---	0.00	29.988 
08:30	10.7	10.7	10.7	82	6.3	0	1	248	0.00	29.989 
08:35	10.9	10.9	10.9	82	6.5	0	0	---	0.00	29.989 
08:40	11.2	11.2	11.2	82	6.8	0	1	248	0.00	29.989 
08:45	11.6	11.6	11.6	82	7.2	0	2	248	0.00	29.999 
08:50	11.7	11.7	11.7	82	7.3	0	2	248	0.00	29.999 
08:55	11.9	11.9	11.9	82	7.5	0	2	248	0.00	29.999 
09:00	12.1	12.1	12.1	81	7.4	0	2	248	0.00	29.998 
09:05	12.3	12.3	12.3	81	7.6	0	3	248	0.00	29.998 
09:10	12.6	12.6	12.6	81	7.9	0	2	248	0.00	29.998 
09:15	12.8	12.8	12.8	81	8.1	1	4	248	0.00	30.002 
09:20	13.1	13.1	13.1	81	8.4	0	3	248	0.00	30.002 
09:25	13.1	13.1	13.1	80	8.1	1	5	225	0.00	30.002 
09:30	13.3	13.3	13.3	80	8.3	0	3	225	0.00	29.999 
09:35	13.5	13.5	13.5	80	8.5	1	4	248	0.00	29.999 
09:40	13.8	13.8	13.8	80	8.8	0	2	248	0.00	29.999 
09:45	14.0	14.0	14.0	79	8.7	1	3	248	0.00	29.999 
09:50	14.1	14.1	14.1	78	8.5	1	3	248	0.00	29.999 
09:55	14.3	14.3	14.3	78	8.7	0	2	248	0.00	29.999 
10:00	14.6	14.6	14.6	77	8.7	0	2	248	0.00	30.000 
10:05	14.8	14.8	14.8	77	8.9	0	2	248	0.00	30.000 
10:10	15.1	15.1	15.1	77	9.2	0	2	248	0.00	30.000 
10:15	15.4	15.4	15.4	77	9.5	0	3	248	0.00	30.000 
10:20	15.4	15.4	15.4	76	9.2	1	4	248	0.00	30.000 
10:25	15.4	15.4	15.4	75	8.9	1	5	248	0.00	30.000 
10:30	15.4	15.4	15.4	75	8.9	1	4	248	0.00	30.004 
10:35	15.6	15.6	15.6	75	9.1	1	4	248	0.00	30.004 
10:40	15.9	15.9	15.9	75	9.4	1	3	248	0.00	30.004 
10:45	16.2	16.2	16.2	74	9.4	1	3	248	0.00	30.002 
10:50	16.4	16.4	16.4	74	9.6	1	5	90	0.00	30.002 
10:55	16.9	16.9	16.9	73	9.8	0	3	248	0.00	30.002 
11:00	17.2	17.2	17.2	73	10.1	0	3	248	0.00	29.992 
11:05	17.2	17.2	17.2	72	9.8	1	3	248	0.00	29.992 
11:10	16.9	16.9	16.9	71	9.2	1	5	248	0.00	29.992 
11:15	16.9	16.9	16.9	72	9.5	0	3	248	0.00	29.986 
11:20	16.9	16.9	16.9	71	9.2	0	3	270	0.00	29.986 
11:25	17.2	17.2	17.2	71	9.4	0	3	270	0.00	29.986 
11:30	17.2	17.2	17.2	71	9.4	1	5	90	0.00	29.977 
11:35	17.2	17.2	17.2	71	9.4	1	6	68	0.00	29.977 
11:40	17.3	17.3	17.3	71	9.5	1	4	270	0.00	29.977 
11:45	17.7	17.7	17.7	71	9.9	1	5	248	0.00	29.967 
11:50	18.1	18.1	18.1	71	10.3	1	5	248	0.00	29.967 
11:55	18.4	18.4	18.4	70	10.3	1	5	248	0.00	29.967 
12:00	18.6	18.6	18.6	70	10.5	2	5	90	0.00	29.961 
12:05	18.6	18.6	18.6	70	10.5	1	4	248	0.00	29.961 
12:10	18.8	18.8	18.8	69	10.3	1	5	248	0.00	29.961 
12:15	18.9	18.9	18.9	69	10.4	1	4	112	0.00	29.951 
12:20	18.9	18.9	18.9	69	10.4	1	3	112	0.00	29.951 
12:25	18.9	18.9	18.9	68	10.1	1	4	225	0.00	29.951 
12:30	19.1	19.1	19.1	68	10.3	1	4	90	0.00	29.945 
12:35	19.4	19.4	19.4	68	10.6	0	4	338	0.00	29.945 
12:40	19.7	19.7	19.7	67	10.5	1	4	135	0.00	29.945 
12:45	19.7	19.7	19.7	67	10.5	1	3	135	0.00	29.931 
12:50	19.9	19.9	19.9	67	10.7	0	2	248	0.00	29.931 
12:55	20.0	20.0	20.0	66	10.5	1	3	248	0.00	29.931 
13:00	20.0	20.0	20.0	66	10.5	1	4	248	0.00	29.928 
13:05	20.0	20.0	20.0	67	10.8	1	4	90	0.00	29.928 
13:10	20.2	20.2	20.2	66	10.7	0	3	225	0.00	29.928 
13:15	20.2	20.2	20.2	66	10.7	1	4	135	0.00	29.925 
13:20	19.9	19.9	19.9	67	10.7	2	5	112	0.00	29.925 
13:25	19.9	19.9	19.9	67	10.7	0	3	22	0.00	29.925 
13:30	19.7	19.7	19.7	67	10.5	2	5	68	0.00	29.914 
13:35	19.5	19.5	19.5	69	11.0	0	2	68	0.00	29.914 
13:40	19.5	19.5	19.5	69	11.0	1	3	68	0.00	29.914 
13:45	19.4	19.4	19.4	69	10.9	0	3	68	0.00	29.908 
13:50	19.4	19.4	19.4	69	10.9	1	5	90	0.00	29.908 
13:55	19.5	19.5	19.5	69	11.0	0	2	90	0.00	29.908 
14:00	19.5	19.5	19.5	70	11.3	0	2	90	0.00	29.901 
14:05	19.7	19.7	19.7	70	11.5	1	4	90	0.00	29.901 
14:10	19.9	19.9	19.9	70	11.7	1	4	90	0.00	29.901 
14:15	19.9	19.9	19.9	70	11.7	1	4	90	0.00	29.898 
14:20	19.9	19.9	19.9	70	11.7	1	5	112	0.00	29.898 
14:25	19.9	19.9	19.9	70	11.7	1	3	90	0.00	29.898 
14:30	20.0	20.0	20.0	70	11.8	1	4	135	0.00	29.896 
14:35	20.0	20.0	20.0	70	11.8	1	6	112	0.00	29.896 
14:40	20.0	20.0	20.0	70	11.8	2	5	112	0.00	29.896 
14:45	20.0	20.0	20.0	71	12.1	1	4	112	0.00	29.896 
14:50	20.2	20.2	20.2	71	12.3	1	4	112	0.00	29.896 
14:55	20.2	20.2	20.2	71	12.3	1	3	112	0.00	29.896 
15:00	20.2	20.2	20.2	71	12.3	1	3	112	0.00	29.896 
15:05	20.2	20.2	20.2	71	12.3	1	4	112	0.00	29.896 
15:10	20.2	20.2	20.2	71	12.3	1	4	112	0.00	29.896 
15:15	20.2	20.2	20.2	71	12.3	1	4	112	0.00	29.881 
15:20	20.2	20.2	20.2	71	12.3	1	4	112	0.00	29.881 
15:25	20.2	20.2	20.2	72	12.6	1	3	112	0.00	29.881 
15:30	20.2	20.2	20.2	72	12.6	1	3	112	0.00	29.878 
15:35	20.2	20.2	20.2	72	12.6	2	5	112	0.00	29.878 
15:40	20.2	20.2	20.2	71	12.3	1	6	90	0.00	29.878 
15:45	20.2	20.2	20.2	72	12.6	1	4	112	0.00	29.875 
15:50	20.2	20.2	20.2	72	12.6	1	3	112	0.00	29.875 
15:55	20.3	20.3	20.3	72	12.7	1	3	112	0.00	29.875 
16:00	20.2	20.2	20.2	73	13.0	1	4	90	0.00	29.871 
16:05	20.2	20.2	20.2	73	13.0	1	4	112	0.00	29.871 
16:10	20.2	20.2	20.2	75	13.6	0	2	112	0.00	29.871 
16:15	20.2	20.2	20.2	75	13.6	0	3	112	0.00	29.871 
16:20	20.2	20.2	20.2	76	13.9	0	4	135	0.00	29.871 
16:25	20.2	20.2	20.2	77	14.2	1	3	112	0.00	29.871 
16:30	20.2	20.2	20.2	77	14.2	0	2	112	0.00	29.878 
16:35	20.2	20.2	20.2	78	14.5	0	2	112	0.00	29.878 
16:40	20.2	20.2	20.2	80	15.0	0	2	112	0.00	29.878 
16:45	20.2	20.2	20.2	81	15.3	1	3	112	0.00	29.878 
16:50	20.0	20.0	20.0	81	15.1	0	2	112	0.00	29.878 
16:55	20.0	20.0	20.0	82	15.4	0	2	112	0.00	29.878 
17:00	20.0	20.0	20.0	82	15.4	0	3	112	0.00	29.878 
17:05	19.9	19.9	19.9	83	15.6	1	3	112	0.00	29.878 
17:10	19.9	19.9	19.9	83	15.6	0	2	112	0.00	29.878 
17:15	19.9	19.9	19.9	83	15.6	0	2	112	0.00	29.873 
17:20	19.7	19.7	19.7	84	15.7	1	3	112	0.00	29.873 
17:25	19.7	19.7	19.7	84	15.7	1	3	112	0.00	29.873 
17:30	19.7	19.7	19.7	84	15.7	1	5	112	0.00	29.871 
17:35	19.7	19.7	19.7	85	15.9	2	4	112	0.00	29.871 
17:40	19.5	19.5	19.5	85	15.7	1	5	112	0.00	29.871 
17:45	19.5	19.5	19.5	86	16.0	3	6	112	0.00	29.873 
17:50	19.5	19.5	19.5	86	16.0	2	7	112	0.00	29.873 
17:55	19.5	19.5	19.5	86	16.0	2	5	112	0.00	29.873 
18:00	19.4	19.4	19.4	86	15.9	2	5	90	0.00	29.883 
18:05	19.4	19.4	19.4	87	16.2	0	2	90	0.00	29.883 
18:10	19.4	19.4	19.4	87	16.2	0	2	135	0.00	29.883 
18:15	19.4	19.4	19.4	87	16.2	0	1	135	0.00	29.887 
18:20	19.4	19.4	19.4	87	16.2	0	3	112	0.00	29.887 
18:25	19.4	19.4	19.4	87	16.2	0	2	112	0.00	29.887 
18:30	19.4	19.4	19.4	87	16.2	0	2	112	0.00	29.885 
18:35	19.4	19.4	19.4	87	16.2	1	4	112	0.00	29.885 
18:40	19.4	19.4	19.4	87	16.2	1	2	112	0.00	29.885 
18:45	19.4	19.4	19.4	88	16.4	0	2	112	0.00	29.890 
18:50	19.4	19.4	19.4	88	16.4	1	3	112	0.00	29.890 
18:55	19.4	19.4	19.4	88	16.4	1	2	112	0.00	29.890 
19:00	19.4	19.4	19.4	88	16.4	1	2	112	0.00	29.889 
19:05	19.4	19.4	19.4	88	16.4	1	3	112	0.00	29.889 
19:10	19.4	19.4	19.4	88	16.4	1	3	112	0.00	29.889 
19:15	19.5	19.5	19.5	88	16.5	0	2	112	0.00	29.890 
19:20	19.5	19.5	19.5	88	16.5	0	2	112	0.00	29.890 
19:25	19.5	19.5	19.5	88	16.5	1	3	112	0.00	29.890 
19:30	19.5	19.5	19.5	88	16.5	0	2	112	0.00	29.884 
19:35	19.5	19.5	19.5	88	16.5	1	3	112	0.00	29.884 
19:40	19.5	19.5	19.5	88	16.5	1	3	112	0.00	29.884 
19:45	19.5	19.5	19.5	88	16.5	1	3	112	0.00	29.882 
19:50	19.5	19.5	19.5	88	16.5	0	2	112	0.00	29.882 
19:55	19.5	19.5	19.5	88	16.5	1	3	112	0.00	29.882 
20:00	19.5	19.5	19.5	88	16.5	1	4	112	0.00	29.881 
20:05	19.5	19.5	19.5	88	16.5	1	2	90	0.00	29.881 
20:10	19.5	19.5	19.5	88	16.5	1	2	90	0.00	29.881 
20:15	19.5	19.5	19.5	88	16.5	1	2	90	0.00	29.875 
20:20	19.7	19.7	19.7	89	17.0	2	4	112	0.00	29.875 
20:25	19.7	19.7	19.7	89	17.0	1	3	90	0.00	29.875 
20:30	19.5	19.5	19.5	88	16.5	1	3	90	0.00	29.872 
20:35	19.5	19.5	19.5	88	16.5	1	2	90	0.00	29.872 
20:40	19.5	19.5	19.5	89	16.8	1	4	90	0.00	29.872 
20:45	19.5	19.5	19.5	89	16.8	1	3	90	0.00	29.865 
20:50	19.5	19.5	19.5	89	16.8	1	3	90	0.00	29.865 
20:55	19.5	19.5	19.5	89	16.8	1	3	90	0.00	29.865 
21:00	19.5	19.5	19.5	89	16.8	1	2	90	0.00	29.861 
21:05	19.5	19.5	19.5	89	16.8	1	2	90	0.00	29.861 
21:10	19.4	19.4	19.4	89	16.7	1	4	90	0.00	29.861 
21:15	19.4	19.4	19.4	88	16.4	1	3	90	0.00	29.858 
21:20	19.4	19.4	19.4	88	16.4	1	5	90	0.00	29.858 
21:25	19.2	19.2	19.2	88	16.2	1	3	90	0.00	29.858 
21:30	19.2	19.2	19.2	88	16.2	2	4	90	0.00	29.847 
21:35	19.2	19.2	19.2	88	16.2	1	3	90	0.00	29.847 
21:40	19.1	19.1	19.1	88	16.1	1	4	90	0.00	29.847 
21:45	19.1	19.1	19.1	88	16.1	1	4	90	0.00	29.846 
21:50	19.1	19.1	19.1	88	16.1	0	3	90	0.00	29.846 
21:55	19.1	19.1	19.1	88	16.1	1	3	90	0.00	29.846 
22:00	19.1	19.1	19.1	88	16.1	1	2	90	0.00	29.846 
22:05	18.9	18.9	18.9	88	15.9	1	3	90	0.00	29.846 
22:10	18.9	18.9	18.9	88	15.9	0	3	90	0.00	29.846 
22:15	18.8	18.8	18.8	88	15.8	1	3	90	0.00	29.833 
22:20	18.6	18.6	18.6	88	15.6	0	1	90	0.00	29.833 
22:25	18.4	18.4	18.4	88	15.5	0	1	90	0.00	29.833 
22:30	18.3	18.3	18.3	88	15.4	0	2	90	0.00	29.838 
22:35	18.3	18.3	18.3	88	15.4	0	1	90	0.00	29.838 
22:40	18.3	18.3	18.3	88	15.4	0	2	90	0.00	29.838 
22:45	18.3	18.3	18.3	88	15.4	0	2	90	0.00	29.845 
22:50	18.3	18.3	18.3	88	15.4	0	2	90	0.00	29.845 
22:55	18.1	18.1	18.1	88	15.2	0	0	---	0.00	29.845 
23:00	18.0	18.0	18.0	88	15.1	0	1	90	0.00	29.839 
23:05	17.8	17.8	17.8	88	14.9	0	1	90	0.00	29.839 
23:10	17.5	17.5	17.5	88	14.6	0	0	---	0.00	29.839 
23:15	17.3	17.3	17.3	88	14.4	0	0	---	0.00	29.829 
23:20	17.2	17.2	17.2	88	14.3	0	0	---	0.00	29.829 
23:25	17.0	17.0	17.0	88	14.1	0	0	---	0.00	29.829 
23:30	16.9	16.9	16.9	88	14.0	0	1	90	0.00	29.814 
23:35	16.7	16.7	16.7	88	13.8	0	0	---	0.00	29.814 
23:40	16.4	16.4	16.4	88	13.5	0	0	---	0.00	29.814 
23:45	16.1	16.1	16.1	88	13.2	0	0	---	0.00	29.813 
23:50	15.6	15.6	15.6	88	12.7	0	0	---	0.00	29.813 
23:55	15.1	15.1	15.1	87	11.9	0	0	---	0.00	29.813 

CoCoRaHS
IN-AL-39
A2 Web Hosting
Creative Commons License
GoDaddy
search engine by freefind advanced

loaded 2018-11-15 14:29:33 • last modified 2010-11-18 10:43:29
Privacy PolicyDisclaimer
• wx.awcolley.com is powered by PmWiki v.2002016 •
• all content (unless otherwise noted) © 2018 A W Colley